메인 페이지
METAR-TAF:

METAR-TAF

공항 :

Ponta Delgada, 아조레스, 포르투갈

요한 바오로 2세 공항

위도: 37-44N, 경도: 025-42W, 고도: 71m

현재 날씨관측

예보는 39분 전, 09:00시(UTC)에 발표되었습니다.
3kt
온도 13°C
습도 77%
기압 1032 hPa
시정 10km 이상
고도 1800ft 상공 구름 조금
고도 3000ft 상공 구름 많음

METAR: LPPD 180900Z 35003KT 9999 FEW018 BKN030 13/09 Q1032

시각: 08:39 (09:39 UTC)

예보

예보는 4 시간 39분 전, 05:00시(UTC)에 발표되었습니다.
예보 대상 시간: 18일 06시부터 19일 06시까지 (UTC)
여러 방향의 바람 5kt
시정 10km 이상
고도 1800ft 상공 구름 조금
고도 3000ft 상공 구름 많음
일시적
18일 06시부터 18일 24시까지 (UTC)
고도 2500ft 상공 구름 보통

TAF: LPPD 180500Z 1806/1906 VRB05KT 9999 FEW018 BKN030 TEMPO 1806/1824 SCT025

4,000개 이상의 공항 관측 자료 및 예보 (METAR 및 TAF 보고).

지도상에서 검색 가능한 기상관측소가 노란 점과 빨간 점으로 표시되어 있습니다.

기상관측소 명을 보려면 표시 위로 마우스를 이동하세요.

날씨 관측과 예보를 보려면 클릭하세요.

지도 변경 : 확대하려면 엑스 표시가 있는 녹색 버튼, 축소하려면 빼기 표시가 있는 녹색 버튼, 다음 페이지의 지도를 보려면 녹색 화살표를 클릭하세요.


METAR-TAF: